EXS151 EGNX-LGKO
Flight info
| Callsign | EXS151 |
|---|---|
| Flight time | N/A |
| Altitude | 37000 |
| Route | DTY M605 FINMA L15 BIG UL9 KONAN UL607 KOK DCT MATUG DCT BOMBI DCT DETEV DCT DINKU DCT BESNI DCT LATLO DCT OBEDI DCT MOSAV DCT GUBOK DCT VABEK UL603 OLOTA DCT DISOR UL608 FSK UG18 MES UN139 LURUS L995 KOPAR |
| Aircraft | A21N/M-SDE2E3FGHIRWXY/LB1 |
Departure
| Time | 2026-04-28 17:10 |
|---|---|
| Airport | East Midlands Airport (EGNX) |
Arrival
| Time | N/A |
|---|---|
| Airport | Kos International Airport "Ippokratis" (LGKO) |
| Time | Latitude | Longitude | Altitude | Speed | Heading |
|---|---|---|---|---|---|
| 2026-04-28 17:08 | 52.82915 | -1.33559 | 310 ft | 39 kts | 266° |
| 2026-04-28 17:08 | 52.82909 | -1.34060 | 304 ft | 45 kts | 270° |
| 2026-04-28 17:08 | 52.82906 | -1.34468 | 310 ft | 33 kts | 269° |
| 2026-04-28 17:09 | 52.82901 | -1.34848 | 309 ft | 15 kts | 277° |
| 2026-04-28 17:09 | 52.82992 | -1.34929 | 308 ft | 22 kts | 360° |
| 2026-04-28 17:09 | 52.83066 | -1.34824 | 306 ft | 16 kts | 98° |
| 2026-04-28 17:09 | 52.83067 | -1.34593 | 305 ft | 17 kts | 87° |
| 2026-04-28 17:10 | 52.83075 | -1.34255 | 306 ft | 56 kts | 89° |
| 2026-04-28 17:10 | 52.83095 | -1.33185 | 310 ft | 131 kts | 88° |
| 2026-04-28 17:10 | 52.83150 | -1.31421 | 570 ft | 167 kts | 82° |
| 2026-04-28 17:10 | 52.83183 | -1.29502 | 1471 ft | 164 kts | 88° |
| 2026-04-28 17:11 | 52.83099 | -1.27643 | 2436 ft | 170 kts | 90° |
| 2026-04-28 17:11 | 52.83157 | -1.25525 | 2817 ft | 199 kts | 71° |
| 2026-04-28 17:11 | 52.84002 | -1.23623 | 3132 ft | 222 kts | 33° |
| 2026-04-28 17:11 | 52.85484 | -1.22594 | 3663 ft | 238 kts | 21° |
| 2026-04-28 17:12 | 52.87123 | -1.21935 | 4417 ft | 248 kts | 10° |
| 2026-04-28 17:12 | 52.88878 | -1.22103 | 5209 ft | 258 kts | 356° |
| 2026-04-28 17:12 | 52.90661 | -1.22713 | 5941 ft | 265 kts | 351° |
| 2026-04-28 17:12 | 52.92472 | -1.23446 | 6664 ft | 271 kts | 350° |
| 2026-04-28 17:13 | 52.94315 | -1.24198 | 7424 ft | 274 kts | 351° |
| 2026-04-28 17:13 | 52.96182 | -1.24948 | 8199 ft | 277 kts | 352° |
| 2026-04-28 17:13 | 52.98064 | -1.25695 | 8983 ft | 279 kts | 352° |
| 2026-04-28 17:13 | 52.99950 | -1.26592 | 9739 ft | 287 kts | 341° |
| 2026-04-28 17:14 | 53.01743 | -1.28206 | 10385 ft | 300 kts | 332° |
| 2026-04-28 17:14 | 53.03438 | -1.30379 | 10681 ft | 326 kts | 318° |
| 2026-04-28 17:14 | 53.04755 | -1.33669 | 10932 ft | 353 kts | 292° |
| 2026-04-28 17:14 | 53.05152 | -1.37796 | 11202 ft | 375 kts | 267° |
| 2026-04-28 17:15 | 53.04516 | -1.42067 | 11452 ft | 391 kts | 243° |
| 2026-04-28 17:15 | 53.02939 | -1.45700 | 11836 ft | 397 kts | 220° |
| 2026-04-28 17:15 | 53.00599 | -1.48195 | 12405 ft | 395 kts | 198° |
| 2026-04-28 17:15 | 52.97978 | -1.49103 | 12993 ft | 389 kts | 176° |
| 2026-04-28 17:16 | 52.95348 | -1.48401 | 13577 ft | 381 kts | 154° |
| 2026-04-28 17:16 | 52.93063 | -1.46274 | 14177 ft | 376 kts | 140° |
| 2026-04-28 17:16 | 52.90788 | -1.44040 | 14702 ft | 386 kts | 150° |
| 2026-04-28 17:16 | 52.88289 | -1.42328 | 15229 ft | 392 kts | 154° |
| 2026-04-28 17:17 | 52.85701 | -1.40815 | 15758 ft | 397 kts | 155° |
| 2026-04-28 17:17 | 52.83080 | -1.39330 | 16286 ft | 400 kts | 155° |
| 2026-04-28 17:17 | 52.80441 | -1.37784 | 16812 ft | 403 kts | 154° |
| 2026-04-28 17:17 | 52.77803 | -1.36164 | 17326 ft | 406 kts | 153° |
| 2026-04-28 17:18 | 52.75156 | -1.34473 | 17888 ft | 409 kts | 152° |
| 2026-04-28 17:18 | 52.72509 | -1.32738 | 18443 ft | 409 kts | 152° |
| 2026-04-28 17:18 | 52.69863 | -1.30982 | 18905 ft | 412 kts | 152° |
| 2026-04-28 17:18 | 52.67192 | -1.29199 | 19312 ft | 416 kts | 151° |
| 2026-04-28 17:19 | 52.64498 | -1.27399 | 19719 ft | 420 kts | 151° |
| 2026-04-28 17:19 | 52.61782 | -1.25590 | 20139 ft | 423 kts | 151° |
| 2026-04-28 17:19 | 52.59045 | -1.23774 | 20547 ft | 426 kts | 151° |
| 2026-04-28 17:19 | 52.56279 | -1.21944 | 20950 ft | 430 kts | 151° |
| 2026-04-28 17:20 | 52.53496 | -1.20108 | 21356 ft | 433 kts | 151° |
| 2026-04-28 17:20 | 52.51607 | -1.18864 | 21661 ft | 435 kts | 151° |
| 2026-04-28 17:20 | 52.47878 | -1.16415 | 22285 ft | 437 kts | 150° |
| 2026-04-28 17:20 | 52.45048 | -1.14557 | 22677 ft | 440 kts | 150° |
| 2026-04-28 17:21 | 52.42197 | -1.12687 | 23121 ft | 443 kts | 150° |
| 2026-04-28 17:21 | 52.39318 | -1.10800 | 23518 ft | 447 kts | 150° |
| 2026-04-28 17:21 | 52.36414 | -1.08900 | 23908 ft | 450 kts | 150° |
| 2026-04-28 17:22 | 52.30577 | -1.05092 | 24639 ft | 454 kts | 150° |
| 2026-04-28 17:22 | 52.27636 | -1.03179 | 25037 ft | 456 kts | 149° |
| 2026-04-28 17:22 | 52.24692 | -1.01270 | 25468 ft | 455 kts | 149° |
| 2026-04-28 17:23 | 52.18805 | -0.97456 | 26280 ft | 453 kts | 149° |
| 2026-04-28 17:23 | 52.15895 | -0.95581 | 26876 ft | 448 kts | 149° |
| 2026-04-28 17:23 | 52.12999 | -0.93715 | 27299 ft | 446 kts | 149° |
| 2026-04-28 17:23 | 52.10118 | -0.91855 | 27690 ft | 446 kts | 149° |
| 2026-04-28 17:24 | 52.07241 | -0.89999 | 28092 ft | 445 kts | 148° |
| 2026-04-28 17:24 | 52.04370 | -0.88149 | 28530 ft | 443 kts | 148° |
| 2026-04-28 17:24 | 52.01504 | -0.86303 | 28963 ft | 443 kts | 149° |
| 2026-04-28 17:24 | 51.98642 | -0.84463 | 29362 ft | 442 kts | 149° |
| 2026-04-28 17:25 | 51.95787 | -0.82632 | 29785 ft | 441 kts | 149° |
| 2026-04-28 17:25 | 51.90096 | -0.78993 | 30582 ft | 439 kts | 149° |
| 2026-04-28 17:25 | 51.87250 | -0.77176 | 30841 ft | 439 kts | 149° |
| 2026-04-28 17:26 | 51.84406 | -0.75359 | 31109 ft | 439 kts | 149° |
| 2026-04-28 17:26 | 51.81663 | -0.73295 | 31384 ft | 432 kts | 142° |
| 2026-04-28 17:26 | 51.79160 | -0.70703 | 31683 ft | 426 kts | 136° |
| 2026-04-28 17:26 | 51.76912 | -0.67589 | 31792 ft | 426 kts | 131° |
| 2026-04-28 17:27 | 51.74782 | -0.64295 | 32091 ft | 423 kts | 129° |
| 2026-04-28 17:27 | 51.72712 | -0.60936 | 32479 ft | 422 kts | 128° |
| 2026-04-28 17:27 | 51.70666 | -0.57545 | 32644 ft | 421 kts | 128° |
| 2026-04-28 17:27 | 51.68656 | -0.54193 | 32886 ft | 422 kts | 128° |
| 2026-04-28 17:28 | 51.66614 | -0.50798 | 33121 ft | 422 kts | 128° |
| 2026-04-28 17:28 | 51.62838 | -0.43671 | 33593 ft | 415 kts | 118° |
| 2026-04-28 17:28 | 51.61438 | -0.39665 | 33821 ft | 410 kts | 110° |
| 2026-04-28 17:29 | 51.60438 | -0.35382 | 34021 ft | 407 kts | 103° |
| 2026-04-28 17:29 | 51.59649 | -0.31030 | 34231 ft | 406 kts | 102° |
| 2026-04-28 17:29 | 51.58940 | -0.26632 | 34400 ft | 406 kts | 101° |
| 2026-04-28 17:30 | 51.57610 | -0.17809 | 34808 ft | 407 kts | 100° |
| 2026-04-28 17:30 | 51.56262 | -0.08918 | 34953 ft | 413 kts | 101° |
| 2026-04-28 17:30 | 51.55567 | -0.04442 | 35075 ft | 413 kts | 101° |
| 2026-04-28 17:31 | 51.54864 | 0.00035 | 35217 ft | 413 kts | 102° |
| 2026-04-28 17:31 | 51.53433 | 0.09059 | 35251 ft | 418 kts | 102° |
| 2026-04-28 17:32 | 51.51986 | 0.18102 | 35572 ft | 418 kts | 102° |
| 2026-04-28 17:32 | 51.51260 | 0.22623 | 35697 ft | 418 kts | 102° |
| 2026-04-28 17:32 | 51.50533 | 0.27148 | 35834 ft | 419 kts | 102° |
| 2026-04-28 17:32 | 51.49804 | 0.31671 | 35952 ft | 419 kts | 102° |
| 2026-04-28 17:33 | 51.49071 | 0.36205 | 36074 ft | 420 kts | 102° |
| 2026-04-28 17:33 | 51.48337 | 0.40736 | 36196 ft | 420 kts | 102° |
| 2026-04-28 17:33 | 51.47600 | 0.45275 | 36312 ft | 421 kts | 102° |
| 2026-04-28 17:33 | 51.47112 | 0.48278 | 36375 ft | 421 kts | 103° |
| 2026-04-28 17:34 | 51.45370 | 0.58936 | 36596 ft | 423 kts | 103° |
| 2026-04-28 17:34 | 51.44622 | 0.63488 | 36738 ft | 422 kts | 103° |
| 2026-04-28 17:34 | 51.43873 | 0.68043 | 36841 ft | 423 kts | 103° |
| 2026-04-28 17:35 | 51.43119 | 0.72606 | 36945 ft | 423 kts | 103° |
| 2026-04-28 17:35 | 51.42366 | 0.77158 | 37089 ft | 422 kts | 103° |
| 2026-04-28 17:35 | 51.40851 | 0.86272 | 37228 ft | 425 kts | 103° |
| 2026-04-28 17:36 | 51.39324 | 0.95413 | 37255 ft | 425 kts | 103° |
| 2026-04-28 17:36 | 51.37789 | 1.04558 | 37249 ft | 426 kts | 103° |
| 2026-04-28 17:37 | 51.36246 | 1.13695 | 37249 ft | 425 kts | 103° |
| 2026-04-28 17:37 | 51.34695 | 1.22829 | 37245 ft | 425 kts | 104° |
| 2026-04-28 17:38 | 51.33138 | 1.31957 | 37259 ft | 426 kts | 104° |
| 2026-04-28 17:38 | 51.31741 | 1.41149 | 37243 ft | 425 kts | 102° |
| 2026-04-28 17:39 | 51.30460 | 1.50411 | 37244 ft | 428 kts | 102° |
| 2026-04-28 17:40 | 51.28563 | 1.64318 | 37234 ft | 428 kts | 102° |
| 2026-04-28 17:40 | 51.27294 | 1.73561 | 37228 ft | 426 kts | 102° |
| 2026-04-28 17:41 | 51.26011 | 1.82836 | 37227 ft | 427 kts | 102° |
| 2026-04-28 17:41 | 51.24722 | 1.92090 | 37208 ft | 428 kts | 102° |
| 2026-04-28 17:42 | 51.23421 | 2.01370 | 37212 ft | 429 kts | 102° |
| 2026-04-28 17:42 | 51.22108 | 2.10672 | 37209 ft | 430 kts | 102° |
| 2026-04-28 17:43 | 51.20789 | 2.19966 | 37213 ft | 431 kts | 102° |
| 2026-04-28 17:43 | 51.19460 | 2.29269 | 37207 ft | 430 kts | 103° |
| 2026-04-28 17:44 | 51.18123 | 2.38574 | 37205 ft | 432 kts | 103° |
| 2026-04-28 17:44 | 51.17003 | 2.46319 | 37210 ft | 432 kts | 103° |
| 2026-04-28 17:45 | 51.15999 | 2.53221 | 37204 ft | 434 kts | 103° |
| 2026-04-28 17:45 | 51.14634 | 2.62567 | 37202 ft | 433 kts | 103° |
| 2026-04-28 17:46 | 51.13264 | 2.71894 | 37195 ft | 433 kts | 103° |
| 2026-04-28 17:46 | 51.11882 | 2.81252 | 37191 ft | 434 kts | 103° |
| 2026-04-28 17:47 | 51.10497 | 2.90576 | 37186 ft | 434 kts | 103° |
| 2026-04-28 17:47 | 51.09090 | 2.99993 | 37187 ft | 437 kts | 103° |
| 2026-04-28 17:48 | 51.07677 | 3.09394 | 37182 ft | 438 kts | 103° |
| 2026-04-28 17:48 | 51.06254 | 3.18797 | 37177 ft | 437 kts | 103° |
| 2026-04-28 17:49 | 51.04824 | 3.28199 | 37170 ft | 438 kts | 103° |
| 2026-04-28 17:49 | 51.03386 | 3.37588 | 37166 ft | 439 kts | 104° |
| 2026-04-28 17:50 | 51.01930 | 3.47048 | 37154 ft | 442 kts | 104° |
| 2026-04-28 17:50 | 51.00462 | 3.56520 | 37152 ft | 442 kts | 104° |
| 2026-04-28 17:51 | 50.98988 | 3.65983 | 37146 ft | 442 kts | 104° |
| 2026-04-28 17:51 | 50.97504 | 3.75454 | 37148 ft | 442 kts | 104° |
| 2026-04-28 17:52 | 50.96009 | 3.84933 | 37156 ft | 444 kts | 104° |
| 2026-04-28 17:52 | 50.93743 | 3.99206 | 37152 ft | 446 kts | 104° |
| 2026-04-28 17:53 | 50.92219 | 4.08740 | 37153 ft | 445 kts | 104° |
| 2026-04-28 17:53 | 50.90688 | 4.18259 | 37155 ft | 446 kts | 104° |
| 2026-04-28 17:54 | 50.89156 | 4.27728 | 37156 ft | 446 kts | 104° |
| 2026-04-28 17:54 | 50.87608 | 4.37247 | 37157 ft | 445 kts | 104° |
| 2026-04-28 17:55 | 50.86052 | 4.46758 | 37158 ft | 446 kts | 104° |
| 2026-04-28 17:55 | 50.84491 | 4.56246 | 37158 ft | 445 kts | 105° |
| 2026-04-28 17:56 | 50.82921 | 4.65736 | 37156 ft | 446 kts | 105° |
| 2026-04-28 17:56 | 50.81341 | 4.75235 | 37149 ft | 448 kts | 105° |
| 2026-04-28 17:57 | 50.79740 | 4.84807 | 37143 ft | 452 kts | 105° |
| 2026-04-28 17:57 | 50.78126 | 4.94399 | 37146 ft | 451 kts | 105° |
| 2026-04-28 17:58 | 50.76506 | 5.03982 | 37147 ft | 452 kts | 106° |
| 2026-04-28 17:58 | 50.74876 | 5.13577 | 37152 ft | 453 kts | 106° |
| 2026-04-28 17:59 | 50.73229 | 5.23200 | 37154 ft | 456 kts | 107° |
| 2026-04-28 17:59 | 50.71564 | 5.32873 | 37158 ft | 460 kts | 107° |
| 2026-04-28 18:00 | 50.69882 | 5.42604 | 37157 ft | 460 kts | 107° |
| 2026-04-28 18:00 | 50.68190 | 5.52327 | 37150 ft | 459 kts | 107° |
| 2026-04-28 18:01 | 50.66482 | 5.62102 | 37153 ft | 460 kts | 106° |
| 2026-04-28 18:01 | 50.64784 | 5.71759 | 37147 ft | 462 kts | 107° |
| 2026-04-28 18:02 | 50.63052 | 5.81549 | 37141 ft | 464 kts | 107° |
| 2026-04-28 18:02 | 50.61314 | 5.91335 | 37140 ft | 464 kts | 107° |
| 2026-04-28 18:03 | 50.59573 | 6.01080 | 37145 ft | 463 kts | 107° |
| 2026-04-28 18:03 | 50.57818 | 6.10840 | 37147 ft | 464 kts | 107° |